Logo AVAMET
Benvolgut visitant, si us plau, ingressa Recuperar contrasenya
AVAMET paisatges

Torreblanca AEMET

Dades diàries. Acumulats / Últims 30 dies disponibles

Data Temperatura (°C) Humitat rel. (%) Pressió rel. (hPa) Vent (km/h) Precipitació
Mínima Mitjana Màxima Amplitud
tèrmica
Mínima Mitjana Màxima Mínima Mitjana Màxima Predom. Mitjana Ràfega
màxima
Total
(mm)
Índex-n
Mínima Mitjana Màxima Mínima Mitjana Màxima n
0 a 1
P0 max
mm 5'
Dades mensuals acumulades fins l'últim dia disponible
03/2020 5,9 10,1 13,8 14,0 11,3 17,8 26,3 20,4   80,0 75,0
Dades anuals acumulades fins l'últim dia disponible
2020 4,5 9,2 13,9 13,2 10,0 17,2 26,3 21,8   80,0 232,8
Últims 30 dies disponibles
29-03-2020 9,8     14,5     19,3 9,5 33,0 0,0
28-03-2020 7,5     12,4     17,3 9,8 33,0 0,0
27-03-2020 7,1     10,6     14,2 7,1 28,0 0,0
26-03-2020 5,9     10,6     15,3 9,4 48,0 1,4
25-03-2020 7,2     9,3     11,3 4,1 25,0 9,0
24-03-2020 10,1     12,1     14,0 3,9 44,0 4,8
23-03-2020 12,1     14,5     16,9 4,8 34,0 0,4
22-03-2020 10,0     12,7     15,4 5,4 23,0 11,8
21-03-2020 9,5     12,5     15,5 6,0 27,0 0,0
20-03-2020 9,9     13,0     16,1 6,2 30,0 0,0
19-03-2020 9,2     12,8     16,4 7,2 25,0 0,0
18-03-2020 11,1     13,5     15,9 4,8 28,0 0,0
17-03-2020 12,5     13,6     14,7 2,2 55,0 37,6
16-03-2020 12,5     13,7     14,8 2,3 34,0 9,8
15-03-2020 9,9     13,6     17,2 7,3 28,0 0,0
14-03-2020 10,7     14,3     17,9 7,2 26,0 0,0
13-03-2020 11,1     15,1     19,0 7,9 30,0 0,0
12-03-2020 10,0     14,0     18,0 8,0 17,0 0,0
11-03-2020 10,2     15,4     20,6 10,4 21,0 0,0
10-03-2020 10,1     13,3     16,5 6,4 62,0 0,0
09-03-2020 12,8     16,8     20,7 7,9 57,0 0,0
08-03-2020 8,9     13,7     18,5 9,6 23,0 0,0
07-03-2020 8,8     14,3     19,8 11,0 58,0 0,0
06-03-2020 8,7     12,5     16,2 7,5 80,0 0,0
05-03-2020 13,6     19,9     26,3 12,7 54,0 0,0
04-03-2020 13,0     17,6     22,2 9,2 45,0 0,0
03-03-2020 8,2     16,4     24,6 16,4 70,0 0,2
02-03-2020 8,3     15,0     21,6 13,3 78,0 0,0
01-03-2020 13,8     17,6     21,4 7,6 40,0 0,0
29-02-2020 10,0     17,3     24,6 14,6 54,0 0,0
Últims 13 mesos disponibles
02/2020 6,8 9,9 13,9 14,3 14,5 18,7 24,9 18,1 61,0 0,0
01/2020 4,5 7,8 13,0 11,5 10,0 15,2 21,7 17,2 75,0 157,8
12/2019 7,1 10,3 15,9 13,9 12,3 17,6 25,8 18,7 75,0 97,6
11/2019 5,0 10,9 17,5 15,2 15,2 19,5 26,6 21,6 75,0 4,8
10/2019 10,9 16,3 20,0 20,1 16,4 23,9 28,5 17,6 63,0 32,2
09/2019 14,7 19,7 22,7 23,3 23,0 27,0 30,5 15,8 60,0 43,2
08/2019 19,1 21,9 24,7 25,8 26,6 29,6 32,2 13,1 57,0 48,0
07/2019 18,0 22,1 24,2 26,1 27,3 30,1 32,6 14,6 52,0 23,0
06/2019 12,3 17,7 22,8 21,9 20,9 26,1 35,8 23,5 52,0 0,0
05/2019 9,2 13,7 16,5 17,7 17,7 21,7 27,4 18,2 74,0 13,6
04/2019 7,2 11,2 13,9 14,9 15,2 18,7 25,1 17,9 56,0 41,4
03/2019 7,6 9,6 11,7 14,0 13,4 18,5 22,5 14,9 68,0 13,8
02/2019 4,7 7,6 10,8 11,9 11,8 16,2 20,0 15,3 100,0 0,0
Tots els anys disponibles
2019 2,4 14,0 24,7 18,0 11,8 22,0 35,8 33,4 100,0 321,8
2018 1,6 14,2 27,3 18,1 7,1 22,0 35,1 33,5 82,0 803,6
2017 1,6 13,9 25,0 18,2 9,0 22,4 34,9 33,3 91,0 303,2
2016 2,7 14,2 23,9 18,2 11,2 22,2 32,8 30,1 78,0 429,4
2015 2,0 14,1 25,1 18,2 8,8 22,2 34,1 32,1 91,0 423,4
2014 3,5 14,2 24,5 18,4 12,3 22,5 34,2 30,7 95,0 298,8
2013 3,0 13,3 17,6 17,5 21,0 21,8 31,4 28,4 106,0 294,8
2012 1,0 14,4 24,8 18,7 9,7 23,0 32,4 31,4 92,0 289,8
Temperatura (°C)
Humitat relativa (%)
Velocitat del vent i ràfega màxima (km/h)
Direcció del vent (°)
Pressió (hPa)
Precipitació (mm)
Nota sobre les dades: s'avisa a l'usuari de la provisionalitat i no oficialitat d'aquestes dades
Logo AVAMET blanc
Web allotjada a Sollutia
Llicència de Creative CommonsLa web d'AVAMET i els seus continguts estan subjectes a una llicència de
Reconeixement - No Comercial - Compartir igual
Últimes estacions:  Altea - Com. Regants (Soci), Almoines (Inforatge), Beniparrell (Inforatge), Albal (Inforatge), Almussafes - Parc Industrial (Inforatge), La Vilavella (Soci), la Serratella (soci) - - -